Terminal Aerodrome Forecast
Issued by NWS Quad Cities IA IL

Home | Current Version | Previous Version | Text Only | Print | Product List | Glossary On
Versions: 1 2 3 4 5 6 7 8 9 10 11 12 13 14 15 16 17 18 19 20 21 22 23 24 25 26 27 28 29 30 31 32 33 34 35 36
000
FTUS43 KDVN 291308 AAA
TAFMLI
TAF AMD
KMLI 291308Z 2913/3012 34005KT 6SM BR OVC010
     FM291500 04008KT 6SM BR OVC008
     FM291900 07008KT P6SM SCT008 OVC018
     FM300000 07011KT P6SM SCT018 OVC027
     FM300900 08013KT P6SM VCSH OVC028=

USA.gov is the U.S. government's official web portal to all federal, state and local government web resources and services.